sensor_id;sensor_type;location;lat;lon;timestamp;temperature;humidity
17452;DHT22;8843;48.838;9.324;2022-11-18T00:01:54;11.50;89.20
17452;DHT22;8843;48.838;9.324;2022-11-18T00:04:21;11.50;89.00
17452;DHT22;8843;48.838;9.324;2022-11-18T00:06:48;11.50;89.20
17452;DHT22;8843;48.838;9.324;2022-11-18T00:09:15;11.50;89.10
17452;DHT22;8843;48.838;9.324;2022-11-18T00:11:42;11.40;89.00
17452;DHT22;8843;48.838;9.324;2022-11-18T00:14:28;11.40;89.10
17452;DHT22;8843;48.838;9.324;2022-11-18T00:16:56;11.50;89.10
17452;DHT22;8843;48.838;9.324;2022-11-18T00:19:25;11.50;89.20
17452;DHT22;8843;48.838;9.324;2022-11-18T00:21:53;11.50;89.10
17452;DHT22;8843;48.838;9.324;2022-11-18T00:24:20;11.50;89.10
17452;DHT22;8843;48.838;9.324;2022-11-18T00:26:47;11.50;89.10
17452;DHT22;8843;48.838;9.324;2022-11-18T00:29:15;11.50;89.10
17452;DHT22;8843;48.838;9.324;2022-11-18T00:31:43;11.50;89.10
17452;DHT22;8843;48.838;9.324;2022-11-18T00:34:11;11.50;89.00
17452;DHT22;8843;48.838;9.324;2022-11-18T00:36:39;11.50;89.00
17452;DHT22;8843;48.838;9.324;2022-11-18T00:39:06;11.50;89.00
17452;DHT22;8843;48.838;9.324;2022-11-18T00:41:33;11.50;89.00
17452;DHT22;8843;48.838;9.324;2022-11-18T00:44:17;11.50;89.00
17452;DHT22;8843;48.838;9.324;2022-11-18T00:46:46;11.50;89.00
17452;DHT22;8843;48.838;9.324;2022-11-18T00:49:12;11.50;89.00
17452;DHT22;8843;48.838;9.324;2022-11-18T00:51:39;11.50;89.10
17452;DHT22;8843;48.838;9.324;2022-11-18T00:54:06;11.50;89.10
17452;DHT22;8843;48.838;9.324;2022-11-18T00:56:33;11.50;89.10
17452;DHT22;8843;48.838;9.324;2022-11-18T00:59:00;11.50;89.00
17452;DHT22;8843;48.838;9.324;2022-11-18T01:01:27;11.40;89.00
17452;DHT22;8843;48.838;9.324;2022-11-18T01:03:55;11.50;89.10
17452;DHT22;8843;48.838;9.324;2022-11-18T01:06:22;11.50;89.10
17452;DHT22;8843;48.838;9.324;2022-11-18T01:08:49;11.40;89.10
17452;DHT22;8843;48.838;9.324;2022-11-18T01:11:16;11.50;89.10
17452;DHT22;8843;48.838;9.324;2022-11-18T01:13:57;11.40;89.00
17452;DHT22;8843;48.838;9.324;2022-11-18T01:16:26;11.50;89.10
17452;DHT22;8843;48.838;9.324;2022-11-18T01:18:55;11.40;89.00
17452;DHT22;8843;48.838;9.324;2022-11-18T01:21:23;11.50;89.10
17452;DHT22;8843;48.838;9.324;2022-11-18T01:23:51;11.40;89.00
17452;DHT22;8843;48.838;9.324;2022-11-18T01:26:18;11.50;89.10
17452;DHT22;8843;48.838;9.324;2022-11-18T01:28:45;11.50;89.00
17452;DHT22;8843;48.838;9.324;2022-11-18T01:31:13;11.40;89.10
17452;DHT22;8843;48.838;9.324;2022-11-18T01:33:41;11.40;89.20
17452;DHT22;8843;48.838;9.324;2022-11-18T01:36:21;11.40;89.10
17452;DHT22;8843;48.838;9.324;2022-11-18T01:38:48;11.40;89.10
17452;DHT22;8843;48.838;9.324;2022-11-18T01:41:15;11.40;89.10
17452;DHT22;8843;48.838;9.324;2022-11-18T01:43:51;11.40;89.00
17452;DHT22;8843;48.838;9.324;2022-11-18T01:46:20;11.40;89.00
17452;DHT22;8843;48.838;9.324;2022-11-18T01:48:50;11.40;89.00
17452;DHT22;8843;48.838;9.324;2022-11-18T01:51:24;11.50;89.20
17452;DHT22;8843;48.838;9.324;2022-11-18T01:53:55;11.40;89.10
17452;DHT22;8843;48.838;9.324;2022-11-18T01:56:28;11.40;89.00
17452;DHT22;8843;48.838;9.324;2022-11-18T01:58:59;11.50;89.10
17452;DHT22;8843;48.838;9.324;2022-11-18T02:01:27;11.50;89.10
17452;DHT22;8843;48.838;9.324;2022-11-18T02:03:55;11.50;89.10
17452;DHT22;8843;48.838;9.324;2022-11-18T02:06:23;11.50;89.10
17452;DHT22;8843;48.838;9.324;2022-11-18T02:08:50;11.40;89.00
17452;DHT22;8843;48.838;9.324;2022-11-18T02:11:18;11.50;89.10
17452;DHT22;8843;48.838;9.324;2022-11-18T02:14:19;11.40;89.10
17452;DHT22;8843;48.838;9.324;2022-11-18T02:17:02;11.40;89.10
17452;DHT22;8843;48.838;9.324;2022-11-18T02:19:51;11.40;89.10
17452;DHT22;8843;48.838;9.324;2022-11-18T02:22:39;11.40;89.20
17452;DHT22;8843;48.838;9.324;2022-11-18T02:25:19;11.40;89.20
17452;DHT22;8843;48.838;9.324;2022-11-18T02:28:02;11.40;89.20
17452;DHT22;8843;48.838;9.324;2022-11-18T02:30:41;11.40;89.30
17452;DHT22;8843;48.838;9.324;2022-11-18T02:33:12;11.40;89.20
17452;DHT22;8843;48.838;9.324;2022-11-18T02:35:45;11.40;89.30
17452;DHT22;8843;48.838;9.324;2022-11-18T02:38:15;11.40;89.30
17452;DHT22;8843;48.838;9.324;2022-11-18T02:40:48;11.40;89.30
17452;DHT22;8843;48.838;9.324;2022-11-18T02:43:20;11.40;89.20
17452;DHT22;8843;48.838;9.324;2022-11-18T02:45:54;11.40;89.20
17452;DHT22;8843;48.838;9.324;2022-11-18T02:48:23;11.40;89.30
17452;DHT22;8843;48.838;9.324;2022-11-18T02:50:52;11.40;89.20
17452;DHT22;8843;48.838;9.324;2022-11-18T02:53:20;11.40;89.20
17452;DHT22;8843;48.838;9.324;2022-11-18T02:55:49;11.40;89.30
17452;DHT22;8843;48.838;9.324;2022-11-18T02:58:19;11.40;89.20
17452;DHT22;8843;48.838;9.324;2022-11-18T03:00:53;11.40;89.30
17452;DHT22;8843;48.838;9.324;2022-11-18T03:03:25;11.40;89.30
17452;DHT22;8843;48.838;9.324;2022-11-18T03:06:01;11.40;89.30
17452;DHT22;8843;48.838;9.324;2022-11-18T03:08:35;11.40;89.30
17452;DHT22;8843;48.838;9.324;2022-11-18T03:11:09;11.40;89.30
17452;DHT22;8843;48.838;9.324;2022-11-18T03:13:42;11.40;89.30
17452;DHT22;8843;48.838;9.324;2022-11-18T03:16:17;11.40;89.30
17452;DHT22;8843;48.838;9.324;2022-11-18T03:18:53;11.40;89.30
17452;DHT22;8843;48.838;9.324;2022-11-18T03:21:28;11.40;89.40
17452;DHT22;8843;48.838;9.324;2022-11-18T03:24:05;11.40;89.40
17452;DHT22;8843;48.838;9.324;2022-11-18T03:26:36;11.40;89.40
17452;DHT22;8843;48.838;9.324;2022-11-18T03:29:07;11.40;89.30
17452;DHT22;8843;48.838;9.324;2022-11-18T03:31:40;11.40;89.40
17452;DHT22;8843;48.838;9.324;2022-11-18T03:34:12;11.40;89.40
17452;DHT22;8843;48.838;9.324;2022-11-18T03:36:45;11.40;89.30
17452;DHT22;8843;48.838;9.324;2022-11-18T03:39:14;11.40;89.30
17452;DHT22;8843;48.838;9.324;2022-11-18T03:41:45;11.40;89.40
17452;DHT22;8843;48.838;9.324;2022-11-18T03:44:18;11.40;89.40
17452;DHT22;8843;48.838;9.324;2022-11-18T03:46:50;11.40;89.50
17452;DHT22;8843;48.838;9.324;2022-11-18T03:49:23;11.30;89.40
17452;DHT22;8843;48.838;9.324;2022-11-18T03:51:56;11.40;89.50
17452;DHT22;8843;48.838;9.324;2022-11-18T03:54:26;11.40;90.10
17452;DHT22;8843;48.838;9.324;2022-11-18T03:56:57;11.30;89.30
17452;DHT22;8843;48.838;9.324;2022-11-18T03:59:30;11.40;89.40
17452;DHT22;8843;48.838;9.324;2022-11-18T04:02:02;11.30;89.20
17452;DHT22;8843;48.838;9.324;2022-11-18T04:04:32;11.40;89.40
17452;DHT22;8843;48.838;9.324;2022-11-18T04:07:03;11.40;89.40
17452;DHT22;8843;48.838;9.324;2022-11-18T04:09:35;11.30;89.30
17452;DHT22;8843;48.838;9.324;2022-11-18T04:12:06;11.40;89.40
17452;DHT22;8843;48.838;9.324;2022-11-18T04:14:36;11.40;89.40
17452;DHT22;8843;48.838;9.324;2022-11-18T04:17:09;11.40;89.40
17452;DHT22;8843;48.838;9.324;2022-11-18T04:19:37;11.40;89.40
17452;DHT22;8843;48.838;9.324;2022-11-18T04:22:04;11.40;90.00
17452;DHT22;8843;48.838;9.324;2022-11-18T04:24:31;11.30;89.30
17452;DHT22;8843;48.838;9.324;2022-11-18T04:26:58;11.40;89.40
17452;DHT22;8843;48.838;9.324;2022-11-18T04:29:27;11.30;89.20
17452;DHT22;8843;48.838;9.324;2022-11-18T04:31:54;11.30;89.20
17452;DHT22;8843;48.838;9.324;2022-11-18T04:34:22;11.30;89.40
17452;DHT22;8843;48.838;9.324;2022-11-18T04:36:49;11.30;89.30
17452;DHT22;8843;48.838;9.324;2022-11-18T04:39:16;11.30;89.20
17452;DHT22;8843;48.838;9.324;2022-11-18T04:41:43;11.30;89.20
17452;DHT22;8843;48.838;9.324;2022-11-18T04:44:23;11.40;89.40
17452;DHT22;8843;48.838;9.324;2022-11-18T04:46:50;11.30;89.20
17452;DHT22;8843;48.838;9.324;2022-11-18T04:49:17;11.40;89.30
17452;DHT22;8843;48.838;9.324;2022-11-18T04:51:46;11.30;89.20
17452;DHT22;8843;48.838;9.324;2022-11-18T04:54:14;11.30;89.20
17452;DHT22;8843;48.838;9.324;2022-11-18T04:56:43;11.30;89.20
17452;DHT22;8843;48.838;9.324;2022-11-18T04:59:10;11.30;89.20
17452;DHT22;8843;48.838;9.324;2022-11-18T05:01:38;11.40;89.40
17452;DHT22;8843;48.838;9.324;2022-11-18T05:04:06;11.30;89.20
17452;DHT22;8843;48.838;9.324;2022-11-18T05:06:33;11.40;89.30
17452;DHT22;8843;48.838;9.324;2022-11-18T05:09:02;11.30;89.20
17452;DHT22;8843;48.838;9.324;2022-11-18T05:11:29;11.30;89.10
17452;DHT22;8843;48.838;9.324;2022-11-18T05:14:13;11.30;89.20
17452;DHT22;8843;48.838;9.324;2022-11-18T05:16:40;11.30;89.40
17452;DHT22;8843;48.838;9.324;2022-11-18T05:19:07;11.30;89.30
17452;DHT22;8843;48.838;9.324;2022-11-18T05:21:34;11.20;87.60
17452;DHT22;8843;48.838;9.324;2022-11-18T05:24:03;11.20;90.00
17452;DHT22;8843;48.838;9.324;2022-11-18T05:26:30;11.20;89.40
17452;DHT22;8843;48.838;9.324;2022-11-18T05:28:58;11.20;89.20
17452;DHT22;8843;48.838;9.324;2022-11-18T05:31:25;11.30;89.30
17452;DHT22;8843;48.838;9.324;2022-11-18T05:33:52;11.30;89.30
17452;DHT22;8843;48.838;9.324;2022-11-18T05:36:20;11.30;89.20
17452;DHT22;8843;48.838;9.324;2022-11-18T05:38:47;11.40;91.70
17452;DHT22;8843;48.838;9.324;2022-11-18T05:41:16;11.50;90.40
17452;DHT22;8843;48.838;9.324;2022-11-18T05:43:57;11.40;89.20
17452;DHT22;8843;48.838;9.324;2022-11-18T05:46:25;11.30;89.20
17452;DHT22;8843;48.838;9.324;2022-11-18T05:48:52;11.30;89.40
17452;DHT22;8843;48.838;9.324;2022-11-18T05:51:19;11.30;89.40
17452;DHT22;8843;48.838;9.324;2022-11-18T05:53:48;11.30;89.40
17452;DHT22;8843;48.838;9.324;2022-11-18T05:56:19;11.30;89.40
17452;DHT22;8843;48.838;9.324;2022-11-18T05:58:47;11.30;89.40
17452;DHT22;8843;48.838;9.324;2022-11-18T06:01:18;11.30;89.40
17452;DHT22;8843;48.838;9.324;2022-11-18T06:03:46;11.30;89.40
17452;DHT22;8843;48.838;9.324;2022-11-18T06:06:15;11.30;89.30
17452;DHT22;8843;48.838;9.324;2022-11-18T06:08:46;11.30;89.30
17452;DHT22;8843;48.838;9.324;2022-11-18T06:11:17;11.30;89.30
17452;DHT22;8843;48.838;9.324;2022-11-18T06:13:48;11.30;89.30
17452;DHT22;8843;48.838;9.324;2022-11-18T06:16:19;10.80;90.60
17452;DHT22;8843;48.838;9.324;2022-11-18T06:18:47;10.60;88.50
17452;DHT22;8843;48.838;9.324;2022-11-18T06:21:14;10.40;88.90
17452;DHT22;8843;48.838;9.324;2022-11-18T06:23:42;10.40;88.80
17452;DHT22;8843;48.838;9.324;2022-11-18T06:26:09;10.20;89.60
17452;DHT22;8843;48.838;9.324;2022-11-18T06:28:39;10.20;89.80
17452;DHT22;8843;48.838;9.324;2022-11-18T06:31:06;10.90;93.40
17452;DHT22;8843;48.838;9.324;2022-11-18T06:33:33;12.00;91.50
17452;DHT22;8843;48.838;9.324;2022-11-18T06:36:00;11.90;90.30
17452;DHT22;8843;48.838;9.324;2022-11-18T06:38:27;11.70;90.30
17452;DHT22;8843;48.838;9.324;2022-11-18T06:40:58;11.50;90.10
17452;DHT22;8843;48.838;9.324;2022-11-18T06:43:25;11.40;90.10
17452;DHT22;8843;48.838;9.324;2022-11-18T06:46:08;11.30;90.20
17452;DHT22;8843;48.838;9.324;2022-11-18T06:48:53;11.30;90.20
17452;DHT22;8843;48.838;9.324;2022-11-18T06:51:20;11.20;90.40
17452;DHT22;8843;48.838;9.324;2022-11-18T06:53:47;11.20;90.30
17452;DHT22;8843;48.838;9.324;2022-11-18T06:56:15;11.30;90.20
17452;DHT22;8843;48.838;9.324;2022-11-18T06:58:42;11.30;90.20
17452;DHT22;8843;48.838;9.324;2022-11-18T07:01:12;11.30;90.20
17452;DHT22;8843;48.838;9.324;2022-11-18T07:03:40;11.30;90.20
17452;DHT22;8843;48.838;9.324;2022-11-18T07:06:15;10.80;90.60
17452;DHT22;8843;48.838;9.324;2022-11-18T07:08:46;11.50;91.00
17452;DHT22;8843;48.838;9.324;2022-11-18T07:11:15;11.40;90.30
17452;DHT22;8843;48.838;9.324;2022-11-18T07:13:42;11.40;90.20
17452;DHT22;8843;48.838;9.324;2022-11-18T07:16:12;11.30;90.10
17452;DHT22;8843;48.838;9.324;2022-11-18T07:18:41;11.30;90.20
17452;DHT22;8843;48.838;9.324;2022-11-18T07:21:10;11.30;90.20
17452;DHT22;8843;48.838;9.324;2022-11-18T07:23:38;11.30;90.20
17452;DHT22;8843;48.838;9.324;2022-11-18T07:26:05;11.20;90.20
17452;DHT22;8843;48.838;9.324;2022-11-18T07:28:33;11.30;90.20
17452;DHT22;8843;48.838;9.324;2022-11-18T07:31:01;11.30;90.20
17452;DHT22;8843;48.838;9.324;2022-11-18T07:33:30;11.20;90.10
17452;DHT22;8843;48.838;9.324;2022-11-18T07:36:02;11.30;91.40
17452;DHT22;8843;48.838;9.324;2022-11-18T07:38:29;11.40;90.20
17452;DHT22;8843;48.838;9.324;2022-11-18T07:41:02;11.30;90.10
17452;DHT22;8843;48.838;9.324;2022-11-18T07:43:29;11.20;90.00
17452;DHT22;8843;48.838;9.324;2022-11-18T07:45:56;11.20;90.10
17452;DHT22;8843;48.838;9.324;2022-11-18T07:48:23;11.20;90.10
17452;DHT22;8843;48.838;9.324;2022-11-18T07:50:51;11.20;90.10
17452;DHT22;8843;48.838;9.324;2022-11-18T07:53:18;11.20;90.10
17452;DHT22;8843;48.838;9.324;2022-11-18T07:55:45;11.20;90.10
17452;DHT22;8843;48.838;9.324;2022-11-18T07:58:12;11.20;90.10
17452;DHT22;8843;48.838;9.324;2022-11-18T08:00:39;11.20;90.10
17452;DHT22;8843;48.838;9.324;2022-11-18T08:03:06;11.20;90.10
17452;DHT22;8843;48.838;9.324;2022-11-18T08:05:33;11.20;90.10
17452;DHT22;8843;48.838;9.324;2022-11-18T08:08:01;11.20;90.10
17452;DHT22;8843;48.838;9.324;2022-11-18T08:10:28;11.20;90.00
17452;DHT22;8843;48.838;9.324;2022-11-18T08:12:55;11.20;90.00
17452;DHT22;8843;48.838;9.324;2022-11-18T08:15:22;11.20;90.10
17452;DHT22;8843;48.838;9.324;2022-11-18T08:17:49;11.20;90.00
17452;DHT22;8843;48.838;9.324;2022-11-18T08:20:16;11.20;90.10
17452;DHT22;8843;48.838;9.324;2022-11-18T08:22:43;11.20;90.00
17452;DHT22;8843;48.838;9.324;2022-11-18T08:25:11;11.20;90.00
17452;DHT22;8843;48.838;9.324;2022-11-18T08:27:38;11.20;90.00
17452;DHT22;8843;48.838;9.324;2022-11-18T08:30:06;11.20;90.00
17452;DHT22;8843;48.838;9.324;2022-11-18T08:32:33;11.20;90.00
17452;DHT22;8843;48.838;9.324;2022-11-18T08:35:00;11.20;90.00
17452;DHT22;8843;48.838;9.324;2022-11-18T08:37:27;11.20;90.00
17452;DHT22;8843;48.838;9.324;2022-11-18T08:39:54;11.20;90.00
17452;DHT22;8843;48.838;9.324;2022-11-18T08:42:22;11.20;90.00
17452;DHT22;8843;48.838;9.324;2022-11-18T08:44:50;11.20;90.00
17452;DHT22;8843;48.838;9.324;2022-11-18T08:47:17;11.20;90.00
17452;DHT22;8843;48.838;9.324;2022-11-18T08:49:44;11.20;90.30
17452;DHT22;8843;48.838;9.324;2022-11-18T08:52:10;11.20;90.00
17452;DHT22;8843;48.838;9.324;2022-11-18T08:54:37;11.20;90.00
17452;DHT22;8843;48.838;9.324;2022-11-18T08:57:04;11.20;90.00
17452;DHT22;8843;48.838;9.324;2022-11-18T08:59:33;11.20;90.00
17452;DHT22;8843;48.838;9.324;2022-11-18T09:02:00;11.20;90.00
17452;DHT22;8843;48.838;9.324;2022-11-18T09:04:27;11.20;90.00
17452;DHT22;8843;48.838;9.324;2022-11-18T09:06:54;11.20;90.00
17452;DHT22;8843;48.838;9.324;2022-11-18T09:09:21;11.20;90.00
17452;DHT22;8843;48.838;9.324;2022-11-18T09:11:47;11.20;90.00
17452;DHT22;8843;48.838;9.324;2022-11-18T09:14:14;11.20;90.00
17452;DHT22;8843;48.838;9.324;2022-11-18T09:16:44;11.20;90.00
17452;DHT22;8843;48.838;9.324;2022-11-18T09:19:11;11.20;90.00
17452;DHT22;8843;48.838;9.324;2022-11-18T09:21:38;11.20;90.10
17452;DHT22;8843;48.838;9.324;2022-11-18T09:24:05;11.20;90.10
17452;DHT22;8843;48.838;9.324;2022-11-18T09:26:33;11.20;90.10
17452;DHT22;8843;48.838;9.324;2022-11-18T09:29:00;11.20;90.10
17452;DHT22;8843;48.838;9.324;2022-11-18T09:31:27;11.10;90.00
17452;DHT22;8843;48.838;9.324;2022-11-18T09:33:58;11.20;90.10
17452;DHT22;8843;48.838;9.324;2022-11-18T09:36:25;11.10;90.10
17452;DHT22;8843;48.838;9.324;2022-11-18T09:38:53;11.10;90.10
17452;DHT22;8843;48.838;9.324;2022-11-18T09:41:32;11.10;90.10
17452;DHT22;8843;48.838;9.324;2022-11-18T09:44:08;11.10;90.10
17452;DHT22;8843;48.838;9.324;2022-11-18T09:46:45;11.10;90.10
17452;DHT22;8843;48.838;9.324;2022-11-18T09:49:26;11.10;90.10
17452;DHT22;8843;48.838;9.324;2022-11-18T09:51:55;11.10;90.10
17452;DHT22;8843;48.838;9.324;2022-11-18T09:54:24;11.10;90.10
17452;DHT22;8843;48.838;9.324;2022-11-18T09:56:53;11.10;90.10
17452;DHT22;8843;48.838;9.324;2022-11-18T09:59:23;11.10;90.10
17452;DHT22;8843;48.838;9.324;2022-11-18T10:01:55;11.10;90.20
17452;DHT22;8843;48.838;9.324;2022-11-18T10:04:27;11.10;90.20
17452;DHT22;8843;48.838;9.324;2022-11-18T10:06:54;11.10;90.10
17452;DHT22;8843;48.838;9.324;2022-11-18T10:09:26;11.10;90.20
17452;DHT22;8843;48.838;9.324;2022-11-18T10:12:13;11.10;90.20
17452;DHT22;8843;48.838;9.324;2022-11-18T10:14:57;11.10;90.20
17452;DHT22;8843;48.838;9.324;2022-11-18T10:17:36;11.10;90.10
17452;DHT22;8843;48.838;9.324;2022-11-18T10:20:20;11.10;90.10
17452;DHT22;8843;48.838;9.324;2022-11-18T10:22:51;11.10;90.20
17452;DHT22;8843;48.838;9.324;2022-11-18T10:25:18;11.10;90.20
17452;DHT22;8843;48.838;9.324;2022-11-18T10:27:47;11.10;90.20
17452;DHT22;8843;48.838;9.324;2022-11-18T10:30:16;11.10;90.10
17452;DHT22;8843;48.838;9.324;2022-11-18T10:32:57;11.10;90.20
17452;DHT22;8843;48.838;9.324;2022-11-18T10:35:29;11.10;90.20
17452;DHT22;8843;48.838;9.324;2022-11-18T10:38:02;11.10;90.20
17452;DHT22;8843;48.838;9.324;2022-11-18T10:40:31;11.10;90.20
17452;DHT22;8843;48.838;9.324;2022-11-18T10:42:58;11.10;90.20
17452;DHT22;8843;48.838;9.324;2022-11-18T10:45:28;11.10;90.20
17452;DHT22;8843;48.838;9.324;2022-11-18T10:48:00;11.10;90.20
17452;DHT22;8843;48.838;9.324;2022-11-18T10:50:33;11.10;90.20
17452;DHT22;8843;48.838;9.324;2022-11-18T10:53:01;11.10;90.20
17452;DHT22;8843;48.838;9.324;2022-11-18T10:55:28;11.10;90.20
17452;DHT22;8843;48.838;9.324;2022-11-18T10:57:59;11.50;92.70
17452;DHT22;8843;48.838;9.324;2022-11-18T11:00:39;11.50;90.80
17452;DHT22;8843;48.838;9.324;2022-11-18T11:03:37;11.30;90.30
17452;DHT22;8843;48.838;9.324;2022-11-18T11:06:21;11.30;90.40
17452;DHT22;8843;48.838;9.324;2022-11-18T11:08:55;11.20;90.50
17452;DHT22;8843;48.838;9.324;2022-11-18T11:11:24;11.20;90.50
17452;DHT22;8843;48.838;9.324;2022-11-18T11:13:57;11.10;90.60
17452;DHT22;8843;48.838;9.324;2022-11-18T11:16:28;11.50;93.20
17452;DHT22;8843;48.838;9.324;2022-11-18T11:18:59;12.40;91.40
17452;DHT22;8843;48.838;9.324;2022-11-18T11:21:29;12.10;90.40
17452;DHT22;8843;48.838;9.324;2022-11-18T11:23:57;11.70;90.50
17452;DHT22;8843;48.838;9.324;2022-11-18T11:26:30;11.50;90.60
17452;DHT22;8843;48.838;9.324;2022-11-18T11:29:04;11.40;90.80
17452;DHT22;8843;48.838;9.324;2022-11-18T11:31:41;11.30;91.00
17452;DHT22;8843;48.838;9.324;2022-11-18T11:34:19;11.20;91.00
17452;DHT22;8843;48.838;9.324;2022-11-18T11:36:56;11.20;91.00
17452;DHT22;8843;48.838;9.324;2022-11-18T11:39:39;11.20;91.00
17452;DHT22;8843;48.838;9.324;2022-11-18T11:42:20;11.20;91.00
17452;DHT22;8843;48.838;9.324;2022-11-18T11:44:58;11.20;90.90
17452;DHT22;8843;48.838;9.324;2022-11-18T11:47:38;11.20;90.90
17452;DHT22;8843;48.838;9.324;2022-11-18T11:50:18;11.20;90.90
17452;DHT22;8843;48.838;9.324;2022-11-18T11:53:02;11.20;90.90
17452;DHT22;8843;48.838;9.324;2022-11-18T11:55:48;11.20;90.80
17452;DHT22;8843;48.838;9.324;2022-11-18T11:58:26;11.10;90.90
17452;DHT22;8843;48.838;9.324;2022-11-18T12:01:03;11.10;90.90
17452;DHT22;8843;48.838;9.324;2022-11-18T12:03:45;11.10;90.90
17452;DHT22;8843;48.838;9.324;2022-11-18T12:06:13;11.10;91.00
17452;DHT22;8843;48.838;9.324;2022-11-18T12:08:49;11.10;91.00
17452;DHT22;8843;48.838;9.324;2022-11-18T12:11:27;11.10;91.20
17452;DHT22;8843;48.838;9.324;2022-11-18T12:14:00;11.10;91.20
17452;DHT22;8843;48.838;9.324;2022-11-18T12:16:35;11.00;91.50
17452;DHT22;8843;48.838;9.324;2022-11-18T12:19:07;11.00;91.30
17452;DHT22;8843;48.838;9.324;2022-11-18T12:21:55;11.10;91.30
17452;DHT22;8843;48.838;9.324;2022-11-18T12:24:36;11.00;91.30
17452;DHT22;8843;48.838;9.324;2022-11-18T12:27:09;11.00;91.10
17452;DHT22;8843;48.838;9.324;2022-11-18T12:29:41;11.10;91.10
17452;DHT22;8843;48.838;9.324;2022-11-18T12:32:26;11.10;91.00
17452;DHT22;8843;48.838;9.324;2022-11-18T12:34:59;11.10;91.10
17452;DHT22;8843;48.838;9.324;2022-11-18T12:37:44;11.10;91.10
17452;DHT22;8843;48.838;9.324;2022-11-18T12:40:38;11.00;91.10
17452;DHT22;8843;48.838;9.324;2022-11-18T12:43:10;11.10;91.00
17452;DHT22;8843;48.838;9.324;2022-11-18T12:45:57;11.00;91.10
17452;DHT22;8843;48.838;9.324;2022-11-18T12:48:42;11.00;91.30
17452;DHT22;8843;48.838;9.324;2022-11-18T12:54:25;11.00;91.10
17452;DHT22;8843;48.838;9.324;2022-11-18T12:56:56;11.00;91.20
17452;DHT22;8843;48.838;9.324;2022-11-18T12:59:29;11.00;91.00
17452;DHT22;8843;48.838;9.324;2022-11-18T13:02:17;11.10;91.10
17452;DHT22;8843;48.838;9.324;2022-11-18T13:05:02;11.10;91.10
17452;DHT22;8843;48.838;9.324;2022-11-18T13:07:31;11.10;91.10
17452;DHT22;8843;48.838;9.324;2022-11-18T13:10:21;11.10;91.10
17452;DHT22;8843;48.838;9.324;2022-11-18T13:12:50;11.00;91.10
17452;DHT22;8843;48.838;9.324;2022-11-18T13:15:18;11.00;91.10
17452;DHT22;8843;48.838;9.324;2022-11-18T13:18:11;11.00;91.10
17452;DHT22;8843;48.838;9.324;2022-11-18T13:20:40;11.00;91.00
17452;DHT22;8843;48.838;9.324;2022-11-18T13:23:25;11.00;90.90
17452;DHT22;8843;48.838;9.324;2022-11-18T13:26:16;11.10;90.80
17452;DHT22;8843;48.838;9.324;2022-11-18T13:31:39;11.10;90.90
17452;DHT22;8843;48.838;9.324;2022-11-18T13:34:15;11.10;90.80
17452;DHT22;8843;48.838;9.324;2022-11-18T13:36:45;11.10;90.80
17452;DHT22;8843;48.838;9.324;2022-11-18T13:39:19;11.10;90.80
17452;DHT22;8843;48.838;9.324;2022-11-18T13:41:58;11.10;90.80
17452;DHT22;8843;48.838;9.324;2022-11-18T13:44:29;11.00;90.80
17452;DHT22;8843;48.838;9.324;2022-11-18T13:47:03;11.00;90.80
17452;DHT22;8843;48.838;9.324;2022-11-18T13:49:38;11.00;91.00
17452;DHT22;8843;48.838;9.324;2022-11-18T13:52:09;11.00;91.10
17452;DHT22;8843;48.838;9.324;2022-11-18T13:54:37;10.90;91.20
17452;DHT22;8843;48.838;9.324;2022-11-18T13:57:04;11.00;91.10
17452;DHT22;8843;48.838;9.324;2022-11-18T13:59:33;11.00;91.00
17452;DHT22;8843;48.838;9.324;2022-11-18T14:02:00;11.00;91.00
17452;DHT22;8843;48.838;9.324;2022-11-18T14:04:29;11.00;90.80
17452;DHT22;8843;48.838;9.324;2022-11-18T14:07:14;11.10;90.70
17452;DHT22;8843;48.838;9.324;2022-11-18T14:09:51;11.10;90.60
17452;DHT22;8843;48.838;9.324;2022-11-18T14:12:22;11.10;90.60
17452;DHT22;8843;48.838;9.324;2022-11-18T14:14:51;11.10;90.60
17452;DHT22;8843;48.838;9.324;2022-11-18T14:17:20;11.10;90.60
17452;DHT22;8843;48.838;9.324;2022-11-18T14:19:48;11.10;90.50
17452;DHT22;8843;48.838;9.324;2022-11-18T14:22:18;11.10;90.50
17452;DHT22;8843;48.838;9.324;2022-11-18T14:24:53;11.10;90.50
17452;DHT22;8843;48.838;9.324;2022-11-18T14:27:34;11.20;90.50
17452;DHT22;8843;48.838;9.324;2022-11-18T14:30:25;11.10;90.60
17452;DHT22;8843;48.838;9.324;2022-11-18T14:33:15;11.10;90.30
17452;DHT22;8843;48.838;9.324;2022-11-18T14:35:44;11.10;90.30
17452;DHT22;8843;48.838;9.324;2022-11-18T14:38:15;11.20;90.30
17452;DHT22;8843;48.838;9.324;2022-11-18T14:40:42;11.20;90.30
17452;DHT22;8843;48.838;9.324;2022-11-18T14:43:10;11.20;90.30
17452;DHT22;8843;48.838;9.324;2022-11-18T14:45:39;11.20;90.30
17452;DHT22;8843;48.838;9.324;2022-11-18T14:48:09;11.20;90.30
17452;DHT22;8843;48.838;9.324;2022-11-18T14:50:37;11.20;90.30
17452;DHT22;8843;48.838;9.324;2022-11-18T14:53:04;11.10;90.30
17452;DHT22;8843;48.838;9.324;2022-11-18T14:55:31;11.10;90.30
17452;DHT22;8843;48.838;9.324;2022-11-18T14:57:58;11.10;90.40
17452;DHT22;8843;48.838;9.324;2022-11-18T15:00:25;11.10;90.40
17452;DHT22;8843;48.838;9.324;2022-11-18T15:02:53;10.90;90.90
17452;DHT22;8843;48.838;9.324;2022-11-18T15:05:20;12.10;91.60
17452;DHT22;8843;48.838;9.324;2022-11-18T15:07:47;12.60;89.20
17452;DHT22;8843;48.838;9.324;2022-11-18T15:10:15;11.90;88.50
17452;DHT22;8843;48.838;9.324;2022-11-18T15:12:42;11.60;89.00
17452;DHT22;8843;48.838;9.324;2022-11-18T15:15:09;11.40;89.00
17452;DHT22;8843;48.838;9.324;2022-11-18T15:17:36;11.20;89.40
17452;DHT22;8843;48.838;9.324;2022-11-18T15:20:05;11.20;89.70
17452;DHT22;8843;48.838;9.324;2022-11-18T15:22:32;11.10;89.90
17452;DHT22;8843;48.838;9.324;2022-11-18T15:25:00;11.10;90.00
17452;DHT22;8843;48.838;9.324;2022-11-18T15:27:27;11.00;89.20
17452;DHT22;8843;48.838;9.324;2022-11-18T15:29:54;11.40;91.80
17452;DHT22;8843;48.838;9.324;2022-11-18T15:32:20;11.60;90.00
17452;DHT22;8843;48.838;9.324;2022-11-18T15:34:47;11.40;89.50
17452;DHT22;8843;48.838;9.324;2022-11-18T15:37:16;11.30;89.20
17452;DHT22;8843;48.838;9.324;2022-11-18T15:39:43;11.20;89.60
17452;DHT22;8843;48.838;9.324;2022-11-18T15:42:10;11.10;90.00
17452;DHT22;8843;48.838;9.324;2022-11-18T15:44:37;11.10;90.00
17452;DHT22;8843;48.838;9.324;2022-11-18T15:47:04;11.10;90.10
17452;DHT22;8843;48.838;9.324;2022-11-18T15:49:31;11.10;90.10
17452;DHT22;8843;48.838;9.324;2022-11-18T15:51:58;11.10;90.10
17452;DHT22;8843;48.838;9.324;2022-11-18T15:54:26;11.10;90.20
17452;DHT22;8843;48.838;9.324;2022-11-18T15:56:53;11.10;90.10
17452;DHT22;8843;48.838;9.324;2022-11-18T15:59:20;11.70;92.10
17452;DHT22;8843;48.838;9.324;2022-11-18T16:01:47;12.50;90.20
17452;DHT22;8843;48.838;9.324;2022-11-18T16:04:16;12.30;89.40
17452;DHT22;8843;48.838;9.324;2022-11-18T16:06:44;12.00;89.20
17452;DHT22;8843;48.838;9.324;2022-11-18T16:09:12;11.70;88.90
17452;DHT22;8843;48.838;9.324;2022-11-18T16:11:40;11.50;89.20
17452;DHT22;8843;48.838;9.324;2022-11-18T16:14:24;11.30;89.70
17452;DHT22;8843;48.838;9.324;2022-11-18T16:16:53;11.20;90.00